Time;durP1;ratioP1;P1;durP2;ratioP2;P2;SDS_P1;SDS_P2;PMS_P1;PMS_P2;Temp;Humidity;BMP_temperature;BMP_pressure;BME280_temperature;BME280_humidity;BME280_pressure;Samples;Min_cycle;Max_cycle;Signal;HPM_P1;HPM_P2
2022/02/26 00:02:25;;;;;;;8.90;3.50;;;3.40;99.90;;;;;;5028321;28;20445;-64
2022/02/26 00:04:51;;;;;;;6.60;3.70;;;3.40;99.90;;;;;;5028095;28;20440;-65
2022/02/26 00:07:17;;;;;;;4.53;3.27;;;3.40;99.90;;;;;;5023358;28;20666;-64
2022/02/26 00:09:42;;;;;;;4.53;3.13;;;3.30;99.90;;;;;;5027381;28;20472;-65
2022/02/26 00:12:08;;;;;;;12.33;3.83;;;3.30;99.90;;;;;;5028546;28;20186;-65
2022/02/26 00:14:34;;;;;;;11.80;3.50;;;3.30;99.90;;;;;;5027994;28;20627;-65
2022/02/26 00:16:59;;;;;;;6.20;5.23;;;3.20;99.90;;;;;;5027930;28;20681;-64
2022/02/26 00:19:25;;;;;;;5.63;4.00;;;3.20;99.90;;;;;;5027861;28;20185;-66
2022/02/26 00:21:51;;;;;;;5.33;3.33;;;3.10;99.90;;;;;;5027736;28;20201;-64
2022/02/26 00:24:17;;;;;;;5.17;3.20;;;3.20;99.90;;;;;;5028218;28;20747;-64
2022/02/26 00:26:43;;;;;;;7.90;3.50;;;3.30;99.90;;;;;;5027706;28;20451;-65
2022/02/26 00:29:09;;;;;;;6.80;3.90;;;3.30;99.90;;;;;;5027921;28;20928;-64
2022/02/26 00:31:34;;;;;;;6.03;4.23;;;3.30;99.90;;;;;;5031144;28;20440;-65
2022/02/26 00:34:00;;;;;;;4.33;3.93;;;3.40;99.90;;;;;;5028641;28;20258;-64
2022/02/26 00:36:25;;;;;;;5.73;3.87;;;3.50;99.90;;;;;;5005620;28;20688;-65
2022/02/26 00:38:51;;;;;;;6.97;4.20;;;3.60;99.90;;;;;;5019976;28;20182;-65
2022/02/26 00:41:16;;;;;;;9.70;3.60;;;3.70;99.90;;;;;;5031736;28;20186;-64
2022/02/26 00:43:42;;;;;;;8.20;4.37;;;3.70;99.90;;;;;;5031733;28;20230;-64
2022/02/26 00:46:08;;;;;;;8.73;4.27;;;3.80;99.90;;;;;;5027785;28;20186;-65
2022/02/26 00:51:19;;;;;;;9.33;4.00;;;3.80;99.90;;;;;;5031639;28;20261;-65
2022/02/26 00:53:44;;;;;;;9.73;4.30;;;3.80;99.90;;;;;;5043139;28;21036;-65
2022/02/26 00:56:10;;;;;;;7.10;3.90;;;3.90;99.90;;;;;;5028662;28;20183;-65
2022/02/26 00:58:35;;;;;;;7.43;4.10;;;3.90;99.90;;;;;;5036717;28;20190;-65
2022/02/26 01:01:01;;;;;;;5.17;4.07;;;3.80;99.90;;;;;;5013718;28;20186;-65
2022/02/26 01:03:26;;;;;;;9.07;3.90;;;3.80;99.90;;;;;;5031625;28;20281;-65
2022/02/26 01:05:52;;;;;;;13.57;4.23;;;3.80;99.90;;;;;;5027725;28;20198;-65
2022/02/26 01:08:17;;;;;;;6.73;4.33;;;3.90;99.90;;;;;;5030981;28;20185;-65
2022/02/26 01:10:43;;;;;;;6.47;3.83;;;3.90;99.90;;;;;;5031226;28;20187;-65
2022/02/26 01:13:09;;;;;;;8.40;4.27;;;4.00;99.90;;;;;;5031412;28;20202;-64
2022/02/26 01:15:35;;;;;;;8.43;4.47;;;3.90;99.90;;;;;;5027769;28;20284;-65
2022/02/26 01:18:00;;;;;;;12.73;4.50;;;3.70;99.90;;;;;;5030400;28;20202;-65
2022/02/26 01:20:26;;;;;;;9.30;4.43;;;3.70;99.90;;;;;;5031132;28;20432;-65
2022/02/26 01:22:52;;;;;;;6.57;4.80;;;3.70;99.90;;;;;;5031219;28;20206;-66
2022/02/26 01:25:17;;;;;;;7.83;4.53;;;3.70;99.90;;;;;;5028479;28;20948;-65
2022/02/26 01:27:43;;;;;;;7.33;4.40;;;3.70;99.90;;;;;;5030805;28;20249;-65
2022/02/26 01:30:09;;;;;;;4.23;3.67;;;3.80;99.90;;;;;;5031232;28;20212;-65
2022/02/26 01:32:35;;;;;;;8.97;4.90;;;3.80;99.90;;;;;;5031013;28;20289;-65
2022/02/26 01:35:01;;;;;;;10.10;4.40;;;3.90;99.90;;;;;;5028086;28;20560;-64
2022/02/26 01:37:26;;;;;;;10.23;4.23;;;3.90;99.90;;;;;;5030918;28;20182;-65
2022/02/26 01:39:52;;;;;;;6.50;4.03;;;4.00;99.90;;;;;;5030844;28;20942;-65
2022/02/26 01:42:21;;;;;;;7.10;4.27;;;4.00;99.90;;;;;;5030369;28;20210;-64
2022/02/26 01:44:48;;;;;;;4.47;3.50;;;4.00;99.90;;;;;;5028123;28;20870;-64
2022/02/26 01:47:14;;;;;;;6.00;5.07;;;4.00;99.90;;;;;;5038004;28;20444;-64
2022/02/26 01:49:40;;;;;;;6.47;3.77;;;3.90;99.90;;;;;;5030958;28;20464;-65
2022/02/26 01:52:06;;;;;;;5.47;3.67;;;3.90;99.90;;;;;;5030634;28;20633;-64
2022/02/26 01:54:32;;;;;;;9.50;4.20;;;3.90;99.90;;;;;;5028270;28;20190;-65
2022/02/26 01:56:58;;;;;;;4.97;4.23;;;3.90;99.90;;;;;;5011924;28;21009;-64
2022/02/26 01:59:23;;;;;;;5.43;4.10;;;4.00;99.90;;;;;;5030738;28;20256;-64
2022/02/26 02:01:49;;;;;;;7.17;4.23;;;4.00;99.90;;;;;;5030630;28;20273;-64
2022/02/26 02:04:15;;;;;;;6.40;4.00;;;4.00;99.90;;;;;;5029568;28;20197;-65
2022/02/26 02:06:42;;;;;;;7.13;4.33;;;4.00;99.90;;;;;;5028535;28;20232;-65
2022/02/26 02:09:07;;;;;;;7.70;4.10;;;4.10;99.90;;;;;;5029937;28;20810;-65
2022/02/26 02:11:35;;;;;;;11.10;3.87;;;4.00;99.90;;;;;;5030636;28;20440;-65
2022/02/26 02:14:02;;;;;;;11.37;4.83;;;4.10;99.90;;;;;;5030278;28;20264;-65
2022/02/26 02:16:28;;;;;;;6.37;3.80;;;4.00;99.90;;;;;;5027431;28;20954;-65
2022/02/26 02:18:53;;;;;;;8.03;4.60;;;3.90;99.90;;;;;;5030006;28;20819;-64
2022/02/26 02:21:19;;;;;;;6.20;3.83;;;3.80;99.90;;;;;;5030335;28;20439;-65
2022/02/26 02:23:45;;;;;;;8.13;3.90;;;3.80;99.90;;;;;;5030475;28;20213;-65
2022/02/26 02:26:11;;;;;;;6.27;3.73;;;3.80;99.90;;;;;;5027107;28;20524;-65
2022/02/26 02:28:38;;;;;;;8.60;5.53;;;3.90;99.90;;;;;;5029915;28;20654;-65
2022/02/26 02:31:05;;;;;;;5.20;4.13;;;3.90;99.90;;;;;;5029900;28;20244;-65
2022/02/26 02:33:40;;;;;;;7.03;4.47;;;3.80;99.90;;;;;;5029883;28;20464;-65
2022/02/26 02:36:06;;;;;;;9.70;4.07;;;3.80;99.90;;;;;;5026898;28;20880;-64
2022/02/26 02:38:32;;;;;;;6.83;4.17;;;3.70;99.90;;;;;;5029734;28;20463;-64
2022/02/26 02:40:57;;;;;;;7.00;4.93;;;3.70;99.90;;;;;;5029547;28;20814;-64
2022/02/26 02:43:23;;;;;;;8.47;4.17;;;3.60;99.90;;;;;;5029549;28;20213;-64
2022/02/26 02:45:49;;;;;;;9.23;5.23;;;3.60;99.90;;;;;;5026965;28;20186;-64
2022/02/26 02:48:15;;;;;;;6.60;4.40;;;3.70;99.90;;;;;;5027699;28;20437;-64
2022/02/26 02:50:41;;;;;;;7.77;4.90;;;3.60;99.90;;;;;;5029694;28;20174;-64
2022/02/26 02:53:07;;;;;;;13.67;5.50;;;3.70;99.90;;;;;;5029079;28;20198;-65
2022/02/26 02:55:32;;;;;;;7.67;4.20;;;3.70;99.90;;;;;;5026147;28;21028;-64
2022/02/26 02:57:59;;;;;;;7.40;4.53;;;3.80;99.90;;;;;;5028773;28;20182;-64
2022/02/26 03:00:26;;;;;;;11.03;4.33;;;3.80;99.90;;;;;;5029294;28;20174;-64
2022/02/26 03:02:52;;;;;;;5.27;4.70;;;3.80;99.90;;;;;;5029320;28;20952;-64
2022/02/26 03:05:21;;;;;;;5.83;5.13;;;3.90;99.90;;;;;;5026334;28;21196;-64
2022/02/26 03:07:47;;;;;;;10.33;5.60;;;3.80;99.90;;;;;;5029283;28;20441;-65
2022/02/26 03:10:13;;;;;;;13.33;5.70;;;3.80;99.90;;;;;;5028832;28;20465;-64
2022/02/26 03:12:39;;;;;;;8.57;5.30;;;3.70;99.90;;;;;;5029160;28;20490;-65
2022/02/26 03:15:05;;;;;;;9.80;6.43;;;3.60;99.90;;;;;;5027717;28;20181;-65
2022/02/26 03:17:31;;;;;;;13.67;6.10;;;3.60;99.90;;;;;;5032432;28;20174;-64
2022/02/26 03:19:57;;;;;;;12.27;7.30;;;3.70;99.90;;;;;;5031816;28;20433;-65
2022/02/26 03:22:23;;;;;;;9.50;5.83;;;3.80;99.90;;;;;;5031995;28;20266;-64
2022/02/26 03:24:49;;;;;;;18.60;6.17;;;3.70;99.90;;;;;;5029908;28;20198;-64
2022/02/26 03:27:14;;;;;;;9.63;5.40;;;3.70;99.90;;;;;;5031653;28;20429;-64
2022/02/26 03:29:40;;;;;;;11.90;5.20;;;3.80;99.90;;;;;;5031875;28;20573;-64
2022/02/26 03:32:07;;;;;;;10.77;5.50;;;3.70;99.90;;;;;;5031911;28;20231;-64
2022/02/26 03:34:33;;;;;;;15.07;6.30;;;3.70;99.90;;;;;;5029640;28;20483;-64
2022/02/26 03:36:58;;;;;;;12.17;5.67;;;3.80;99.90;;;;;;5031434;28;20424;-65
2022/02/26 03:39:31;;;;;;;12.63;5.77;;;3.80;99.90;;;;;;5031762;28;20472;-64
2022/02/26 03:42:04;;;;;;;9.23;5.10;;;3.80;99.90;;;;;;5031808;28;20189;-64
2022/02/26 03:44:31;;;;;;;8.13;5.83;;;3.70;99.90;;;;;;5032001;28;20539;-64
2022/02/26 03:46:57;;;;;;;7.67;5.53;;;3.70;99.90;;;;;;5039384;28;20495;-64
2022/02/26 03:49:23;;;;;;;8.63;5.33;;;3.70;99.90;;;;;;5031779;28;20832;-64
2022/02/26 03:51:49;;;;;;;10.03;6.40;;;3.80;99.90;;;;;;5031919;28;20417;-64
2022/02/26 03:54:15;;;;;;;12.27;6.17;;;3.60;99.90;;;;;;5031833;28;21013;-65
2022/02/26 03:56:41;;;;;;;9.40;6.37;;;3.50;99.90;;;;;;5031267;28;20174;-64
2022/02/26 03:59:06;;;;;;;9.80;5.73;;;3.40;99.90;;;;;;5031676;28;20809;-64
2022/02/26 04:01:32;;;;;;;11.27;8.63;;;3.40;99.90;;;;;;5031556;28;20646;-65
2022/02/26 04:03:58;;;;;;;10.70;7.07;;;3.40;99.90;;;;;;5031486;28;20237;-64
2022/02/26 04:06:23;;;;;;;11.03;6.87;;;3.40;99.90;;;;;;5034196;28;20189;-65
2022/02/26 04:08:49;;;;;;;9.13;6.60;;;3.40;99.90;;;;;;5035654;28;20600;-65
2022/02/26 04:11:14;;;;;;;8.80;6.33;;;3.30;99.90;;;;;;5035382;28;20719;-65
2022/02/26 04:13:40;;;;;;;11.73;7.00;;;3.30;99.90;;;;;;5035445;28;20240;-64
2022/02/26 04:16:06;;;;;;;17.90;8.93;;;3.20;99.90;;;;;;5035482;28;20564;-64
2022/02/26 04:18:32;;;;;;;9.30;7.40;;;3.10;99.90;;;;;;5035193;28;20181;-64
2022/02/26 04:20:57;;;;;;;10.63;6.63;;;3.10;99.90;;;;;;5035666;28;20436;-65
2022/02/26 04:23:23;;;;;;;18.20;7.67;;;3.10;99.90;;;;;;5035293;28;20237;-64
2022/02/26 04:25:49;;;;;;;10.23;7.57;;;3.00;99.90;;;;;;5035149;28;20189;-64
2022/02/26 04:28:14;;;;;;;12.20;7.27;;;2.90;99.90;;;;;;5035428;28;20185;-64
2022/02/26 04:30:40;;;;;;;13.10;7.07;;;3.00;99.90;;;;;;5035183;28;20758;-64
2022/02/26 04:33:08;;;;;;;11.23;7.23;;;2.90;99.90;;;;;;5035387;28;20205;-64
2022/02/26 04:35:34;;;;;;;16.53;6.90;;;2.90;99.90;;;;;;5034758;28;20171;-64
2022/02/26 04:38:00;;;;;;;9.60;6.40;;;3.00;99.90;;;;;;5034916;28;20507;-64
2022/02/26 04:40:26;;;;;;;8.50;5.93;;;3.00;99.90;;;;;;5034869;28;20528;-64
2022/02/26 04:42:51;;;;;;;12.40;6.27;;;3.00;99.90;;;;;;5034980;28;20248;-65
2022/02/26 04:45:17;;;;;;;12.17;7.07;;;2.90;99.90;;;;;;5034804;28;20194;-65
2022/02/26 04:47:44;;;;;;;17.40;6.30;;;2.80;99.90;;;;;;5034546;28;20181;-65
2022/02/26 04:50:11;;;;;;;10.40;5.60;;;2.80;99.90;;;;;;5034686;28;20710;-65
2022/02/26 04:52:38;;;;;;;17.27;7.33;;;2.80;99.90;;;;;;5034663;28;20446;-64
2022/02/26 04:55:05;;;;;;;15.03;6.30;;;2.90;99.90;;;;;;5034585;28;20439;-64
2022/02/26 04:57:30;;;;;;;7.87;5.40;;;2.90;99.90;;;;;;5034279;28;20846;-64
2022/02/26 04:59:56;;;;;;;10.23;6.27;;;3.00;99.90;;;;;;5034876;28;20493;-64
2022/02/26 05:02:21;;;;;;;15.43;5.93;;;3.00;99.90;;;;;;5034693;28;20186;-64
2022/02/26 05:04:47;;;;;;;16.23;6.27;;;2.90;99.90;;;;;;5034671;28;20229;-64
2022/02/26 05:07:15;;;;;;;10.27;6.17;;;3.00;99.90;;;;;;5033940;28;20561;-64
2022/02/26 05:09:41;;;;;;;9.10;6.67;;;2.90;99.90;;;;;;5016838;28;20674;-64
2022/02/26 05:12:08;;;;;;;12.83;6.77;;;3.00;99.90;;;;;;5034359;28;20570;-64
2022/02/26 05:14:33;;;;;;;12.20;6.67;;;3.00;99.90;;;;;;5034527;28;20441;-64
2022/02/26 05:16:59;;;;;;;13.57;8.10;;;3.00;99.90;;;;;;5032250;28;20960;-64
2022/02/26 05:19:24;;;;;;;10.17;6.63;;;3.00;99.90;;;;;;5034360;28;20178;-64
2022/02/26 05:21:50;;;;;;;10.07;7.00;;;3.00;99.90;;;;;;5034236;28;20186;-64
2022/02/26 05:24:16;;;;;;;14.00;6.70;;;3.00;99.90;;;;;;5034342;28;20206;-64
2022/02/26 05:26:42;;;;;;;17.43;7.93;;;3.00;99.90;;;;;;5034169;28;20174;-64
2022/02/26 05:29:07;;;;;;;11.40;8.50;;;3.00;99.90;;;;;;5034095;28;20949;-64
2022/02/26 05:31:33;;;;;;;13.67;5.90;;;3.00;99.90;;;;;;5034005;28;20445;-64
2022/02/26 05:33:59;;;;;;;10.43;7.07;;;3.00;99.90;;;;;;5034075;28;20225;-64
2022/02/26 05:36:25;;;;;;;12.93;6.57;;;3.00;99.90;;;;;;5033576;28;20651;-64
2022/02/26 05:38:50;;;;;;;14.30;7.10;;;3.00;99.90;;;;;;5034145;28;20182;-64
2022/02/26 05:41:16;;;;;;;14.63;8.33;;;3.10;99.90;;;;;;5033540;28;20445;-64
2022/02/26 05:43:42;;;;;;;16.40;7.53;;;3.10;99.90;;;;;;5034014;28;20706;-64
2022/02/26 05:46:07;;;;;;;13.60;7.10;;;3.20;99.90;;;;;;5032084;28;20448;-64
2022/02/26 05:48:33;;;;;;;14.53;8.13;;;3.20;99.90;;;;;;5033951;28;20948;-64
2022/02/26 05:51:00;;;;;;;10.60;7.03;;;3.20;99.90;;;;;;5033521;28;20224;-64
2022/02/26 05:53:26;;;;;;;14.07;7.30;;;3.20;99.90;;;;;;5033938;28;20611;-64
2022/02/26 05:55:51;;;;;;;11.60;7.40;;;3.20;99.90;;;;;;5033272;28;20444;-64
2022/02/26 05:58:17;;;;;;;16.10;7.10;;;3.20;99.90;;;;;;5033447;28;20178;-64
2022/02/26 06:00:43;;;;;;;10.73;7.40;;;3.30;99.90;;;;;;5033605;28;20174;-64
2022/02/26 06:03:08;;;;;;;9.87;6.67;;;3.20;99.90;;;;;;5033559;28;20460;-64
2022/02/26 06:05:34;;;;;;;11.37;7.50;;;3.30;99.90;;;;;;5032986;28;20185;-64
2022/02/26 06:07:59;;;;;;;13.40;8.47;;;3.20;99.90;;;;;;5034672;28;20662;-64
2022/02/26 06:10:25;;;;;;;12.50;7.47;;;3.10;99.90;;;;;;5033441;28;20253;-64
2022/02/26 06:12:51;;;;;;;10.60;7.33;;;3.30;99.90;;;;;;5034622;28;20229;-64
2022/02/26 06:15:17;;;;;;;12.63;8.40;;;3.40;99.90;;;;;;5033194;28;20182;-64
2022/02/26 06:17:42;;;;;;;12.50;7.30;;;3.40;99.90;;;;;;5033344;28;20514;-64
2022/02/26 06:20:08;;;;;;;8.77;7.60;;;3.40;99.90;;;;;;5032992;28;20193;-64
2022/02/26 06:22:34;;;;;;;12.67;8.07;;;3.50;99.90;;;;;;5019261;28;20186;-64
2022/02/26 06:24:59;;;;;;;10.50;8.37;;;3.50;99.90;;;;;;5033047;28;20527;-64
2022/02/26 06:27:25;;;;;;;10.37;7.33;;;3.50;99.90;;;;;;5033064;28;20186;-64
2022/02/26 06:29:52;;;;;;;19.53;7.53;;;3.60;99.90;;;;;;5032821;28;20297;-64
2022/02/26 06:32:17;;;;;;;14.87;8.13;;;3.60;99.90;;;;;;5033191;28;20966;-64
2022/02/26 06:34:43;;;;;;;14.70;7.80;;;3.70;99.90;;;;;;5032647;28;20224;-64
2022/02/26 06:37:08;;;;;;;25.13;14.57;;;3.60;99.90;;;;;;5032870;28;20616;-64
2022/02/26 06:39:34;;;;;;;29.60;16.10;;;3.70;99.90;;;;;;5033105;28;20178;-64
2022/02/26 06:42:00;;;;;;;19.60;11.73;;;3.80;99.90;;;;;;5032026;28;20182;-64
2022/02/26 06:44:25;;;;;;;14.07;8.00;;;3.80;99.90;;;;;;5032342;28;20202;-64
2022/02/26 06:46:51;;;;;;;15.20;9.20;;;3.90;99.90;;;;;;5032177;28;20437;-64
2022/02/26 06:49:16;;;;;;;14.77;8.60;;;3.90;99.90;;;;;;5032010;28;20198;-64
2022/02/26 06:51:42;;;;;;;23.07;8.60;;;3.90;99.90;;;;;;5031323;28;20213;-64
2022/02/26 06:54:08;;;;;;;13.13;7.67;;;4.00;99.90;;;;;;5025515;28;20297;-64
2022/02/26 06:56:34;;;;;;;11.13;7.30;;;4.10;99.90;;;;;;5031214;28;20437;-65
2022/02/26 06:59:00;;;;;;;14.83;8.20;;;4.10;99.90;;;;;;5032440;28;20444;-64
2022/02/26 07:01:25;;;;;;;13.80;8.17;;;4.10;99.90;;;;;;5031813;28;20182;-65
2022/02/26 07:03:51;;;;;;;12.37;7.63;;;4.10;99.90;;;;;;5011773;28;20213;-64
2022/02/26 07:06:17;;;;;;;9.47;7.27;;;4.30;99.90;;;;;;5010781;28;20196;-64
2022/02/26 07:08:43;;;;;;;11.77;7.50;;;4.20;99.90;;;;;;5031518;28;20500;-64
2022/02/26 07:11:08;;;;;;;15.57;8.73;;;4.30;99.90;;;;;;5032096;28;20552;-65
2022/02/26 07:13:34;;;;;;;13.00;7.63;;;4.30;99.90;;;;;;5028563;28;20202;-65
2022/02/26 07:16:00;;;;;;;14.97;7.90;;;4.30;99.90;;;;;;5033284;28;20689;-65
2022/02/26 07:18:26;;;;;;;16.60;7.90;;;4.20;99.90;;;;;;5040082;28;20441;-64
2022/02/26 07:20:51;;;;;;;14.10;8.63;;;4.30;99.90;;;;;;5031823;28;20640;-65
2022/02/26 07:23:17;;;;;;;16.00;9.20;;;4.20;99.90;;;;;;5028936;28;20277;-65
2022/02/26 07:25:45;;;;;;;17.37;8.33;;;4.20;99.90;;;;;;5031637;28;20181;-64
2022/02/26 07:28:15;;;;;;;16.90;7.93;;;4.20;99.90;;;;;;5031387;28;20178;-65
2022/02/26 07:30:42;;;;;;;13.67;7.50;;;4.30;99.90;;;;;;5031181;28;20469;-65
2022/02/26 07:33:08;;;;;;;13.13;8.40;;;4.20;99.90;;;;;;5026921;28;20472;-65
2022/02/26 07:35:34;;;;;;;11.80;7.30;;;4.30;99.90;;;;;;5017558;28;20429;-65
2022/02/26 07:37:59;;;;;;;12.53;6.63;;;4.40;99.90;;;;;;5032007;28;20512;-65
2022/02/26 07:40:26;;;;;;;14.20;7.63;;;4.40;99.90;;;;;;5031142;28;20516;-65
2022/02/26 07:42:51;;;;;;;18.40;7.73;;;4.50;99.90;;;;;;5027246;28;20216;-65
2022/02/26 07:45:17;;;;;;;13.27;8.30;;;4.60;99.90;;;;;;5042438;28;20432;-67
2022/02/26 07:47:42;;;;;;;19.80;8.53;;;4.70;99.90;;;;;;5031797;28;20265;-65
2022/02/26 07:50:08;;;;;;;14.43;8.67;;;4.80;99.90;;;;;;5031613;28;20248;-65
2022/02/26 07:52:34;;;;;;;16.00;8.43;;;4.70;99.90;;;;;;5031167;28;20174;-65
2022/02/26 07:55:02;;;;;;;13.87;9.20;;;4.70;99.90;;;;;;5029194;28;20420;-65
2022/02/26 07:57:28;;;;;;;17.87;9.00;;;4.70;99.90;;;;;;5031385;28;20174;-65
2022/02/26 07:59:54;;;;;;;13.63;7.90;;;4.70;99.90;;;;;;5031609;28;20498;-65
2022/02/26 08:02:19;;;;;;;15.70;8.43;;;4.90;99.90;;;;;;5031414;28;20185;-65
2022/02/26 08:04:45;;;;;;;13.27;10.03;;;4.90;99.90;;;;;;5027608;28;20208;-65
2022/02/26 08:07:12;;;;;;;15.97;9.10;;;4.90;99.90;;;;;;5029997;28;20178;-65
2022/02/26 08:09:37;;;;;;;18.03;9.13;;;5.20;99.90;;;;;;5034917;28;20205;-65
2022/02/26 08:12:03;;;;;;;20.37;8.17;;;5.20;99.90;;;;;;5037787;28;20514;-63
2022/02/26 08:14:29;;;;;;;16.57;8.90;;;5.30;99.90;;;;;;5031404;28;20202;-66
2022/02/26 08:16:54;;;;;;;13.87;8.20;;;5.40;99.90;;;;;;5030795;28;20949;-64
2022/02/26 08:19:20;;;;;;;20.00;9.10;;;5.40;99.90;;;;;;5031157;28;20894;-65
2022/02/26 08:21:45;;;;;;;13.93;8.60;;;5.60;99.90;;;;;;5030931;28;20174;-66
2022/02/26 08:24:12;;;;;;;11.40;7.70;;;5.70;99.90;;;;;;5026612;28;20198;-65
2022/02/26 08:26:39;;;;;;;13.27;8.10;;;5.80;99.90;;;;;;5026549;28;20545;-66
2022/02/26 08:29:04;;;;;;;19.33;8.13;;;5.70;99.90;;;;;;5013807;28;20461;-66
2022/02/26 08:31:30;;;;;;;9.43;8.03;;;5.90;99.90;;;;;;5030986;28;20428;-65
2022/02/26 08:33:55;;;;;;;10.50;7.80;;;6.00;99.90;;;;;;5026085;28;20675;-65
2022/02/26 08:36:21;;;;;;;13.90;7.00;;;5.90;99.90;;;;;;5030208;28;20170;-66
2022/02/26 08:38:47;;;;;;;9.33;6.93;;;5.90;99.90;;;;;;5031338;28;20613;-65
2022/02/26 08:41:12;;;;;;;14.37;7.27;;;6.00;99.90;;;;;;5030894;28;20668;-66
2022/02/26 08:43:38;;;;;;;11.17;6.27;;;6.30;99.90;;;;;;5024447;28;20459;-65
2022/02/26 08:46:03;;;;;;;9.37;7.10;;;6.40;99.90;;;;;;5030590;28;20174;-65
2022/02/26 08:48:29;;;;;;;13.13;7.30;;;6.40;99.90;;;;;;5034928;28;20178;-66
2022/02/26 08:50:54;;;;;;;12.53;6.40;;;6.80;99.90;;;;;;5031127;28;20163;-66
2022/02/26 08:53:20;;;;;;;11.87;7.13;;;6.90;99.90;;;;;;5027343;28;20276;-65
2022/02/26 08:55:46;;;;;;;9.50;6.90;;;6.80;99.90;;;;;;5033546;28;20178;-67
2022/02/26 08:58:11;;;;;;;9.00;6.20;;;6.90;99.90;;;;;;5035518;28;20178;-67
2022/02/26 09:00:37;;;;;;;7.77;5.73;;;7.50;99.90;;;;;;5037503;28;20257;-64
2022/02/26 09:03:04;;;;;;;9.37;6.17;;;8.40;99.90;;;;;;5031667;28;20208;-66
2022/02/26 09:05:29;;;;;;;7.97;5.87;;;8.90;99.90;;;;;;5033268;28;20185;-66
2022/02/26 09:07:55;;;;;;;17.23;6.80;;;9.30;99.90;;;;;;5033957;28;20425;-66
2022/02/26 09:10:20;;;;;;;14.43;8.00;;;9.60;99.90;;;;;;5034609;28;20210;-66
2022/02/26 09:12:46;;;;;;;9.47;5.60;;;9.80;99.90;;;;;;5032256;28;20194;-66
2022/02/26 09:15:12;;;;;;;10.53;5.80;;;9.50;99.90;;;;;;5028720;28;20273;-66
2022/02/26 09:17:38;;;;;;;11.73;7.50;;;9.10;99.90;;;;;;5034526;28;20162;-66
2022/02/26 09:20:04;;;;;;;13.50;5.83;;;9.20;99.90;;;;;;5034845;28;20447;-66
2022/02/26 09:22:30;;;;;;;9.60;6.13;;;9.00;99.90;;;;;;5034587;28;20559;-66
2022/02/26 09:24:55;;;;;;;8.47;6.00;;;9.20;99.90;;;;;;5026973;28;20417;-66
2022/02/26 09:27:21;;;;;;;8.50;6.63;;;10.10;99.90;;;;;;5034402;28;20198;-67
2022/02/26 09:29:47;;;;;;;9.73;7.47;;;11.50;99.90;;;;;;5016628;28;20194;-66
2022/02/26 09:32:13;;;;;;;7.60;5.03;;;11.20;99.90;;;;;;5033205;28;20181;-67
2022/02/26 09:34:38;;;;;;;8.67;4.03;;;11.50;99.90;;;;;;5027374;28;20487;-68
2022/02/26 09:37:04;;;;;;;9.63;6.10;;;11.10;99.90;;;;;;5034300;28;20301;-67
2022/02/26 09:39:29;;;;;;;9.17;5.40;;;11.10;99.90;;;;;;5025336;28;20186;-67
2022/02/26 09:41:57;;;;;;;7.07;5.43;;;10.60;99.90;;;;;;5012749;28;20229;-66
2022/02/26 09:44:23;;;;;;;7.73;4.90;;;10.90;99.90;;;;;;5023478;28;20198;-66
2022/02/26 09:46:48;;;;;;;10.70;5.23;;;11.00;99.90;;;;;;5030776;28;20906;-67
2022/02/26 09:49:14;;;;;;;9.23;4.03;;;10.70;99.90;;;;;;5031023;28;20198;-67
2022/02/26 09:51:43;;;;;;;10.90;4.27;;;10.10;99.90;;;;;;5030723;28;20593;-68
2022/02/26 09:54:09;;;;;;;8.10;4.60;;;9.70;99.90;;;;;;5023827;28;20209;-68
2022/02/26 09:56:36;;;;;;;11.90;5.20;;;9.60;99.90;;;;;;5030478;28;20518;-67
2022/02/26 09:59:02;;;;;;;6.60;4.10;;;9.60;99.90;;;;;;5030471;28;20940;-68
2022/02/26 10:01:27;;;;;;;6.67;3.97;;;9.30;99.90;;;;;;5030694;28;20425;-66
2022/02/26 10:04:09;;;;;;;5.90;3.80;;;9.30;99.90;;;;;;5024445;28;20455;-68
2022/02/26 10:06:35;;;;;;;9.80;4.80;;;9.40;99.90;;;;;;5030397;28;20185;-68
2022/02/26 10:09:02;;;;;;;7.77;3.30;;;9.30;99.90;;;;;;5030560;28;20542;-66
2022/02/26 10:11:34;;;;;;;6.23;3.53;;;8.70;99.90;;;;;;5030423;28;20425;-67
2022/02/26 10:14:15;;;;;;;5.70;3.23;;;8.20;99.90;;;;;;5024430;28;20515;-67
2022/02/26 10:17:00;;;;;;;8.83;2.83;;;7.60;99.90;;;;;;5030391;28;20846;-68
2022/02/26 10:19:26;;;;;;;6.00;2.70;;;7.50;99.90;;;;;;5030708;28;20425;-68
2022/02/26 10:21:59;;;;;;;9.70;3.10;;;8.80;99.90;;;;;;5030500;28;20429;-68
2022/02/26 10:24:26;;;;;;;4.33;2.50;;;10.00;99.90;;;;;;5025138;28;20256;-68
2022/02/26 10:26:54;;;;;;;4.13;1.97;;;10.90;99.50;;;;;;5030053;28;20792;-66
2022/02/26 10:29:24;;;;;;;3.87;2.33;;;10.50;98.40;;;;;;5030507;28;20539;-67
2022/02/26 10:31:55;;;;;;;6.00;3.20;;;9.70;98.10;;;;;;5030624;28;20938;-68
2022/02/26 10:34:24;;;;;;;5.90;3.03;;;8.90;99.80;;;;;;5024498;28;20514;-68
2022/02/26 10:37:11;;;;;;;6.30;3.07;;;8.50;99.90;;;;;;5029809;28;20425;-66
2022/02/26 10:39:52;;;;;;;4.60;2.83;;;8.50;99.90;;;;;;5030296;28;20424;-68
2022/02/26 10:42:21;;;;;;;4.77;2.10;;;9.70;99.90;;;;;;5030164;28;20420;-68
2022/02/26 10:44:58;;;;;;;4.73;2.40;;;12.40;93.80;;;;;;5023779;28;20441;-69
2022/02/26 10:47:28;;;;;;;2.93;2.37;;;16.10;64.10;;;;;;5029929;28;20453;-66
2022/02/26 10:49:54;;;;;;;4.43;3.20;;;18.90;53.30;;;;;;5029895;28;20452;-66
2022/02/26 10:52:19;;;;;;;4.00;2.70;;;19.70;47.30;;;;;;5030113;28;20471;-68
2022/02/26 10:54:52;;;;;;;5.50;2.60;;;16.50;46.40;;;;;;5028018;28;20198;-66
2022/02/26 10:57:18;;;;;;;6.00;3.00;;;14.70;50.70;;;;;;5028969;28;20178;-68
2022/02/26 10:59:50;;;;;;;7.80;4.00;;;13.50;52.20;;;;;;5029392;28;20433;-68
2022/02/26 11:02:22;;;;;;;7.67;4.40;;;12.40;55.10;;;;;;5027259;28;20420;-68
2022/02/26 11:04:49;;;;;;;5.50;2.70;;;11.40;57.10;;;;;;5023140;28;20444;-68
2022/02/26 11:07:15;;;;;;;7.87;3.50;;;10.70;59.50;;;;;;5026350;28;20435;-68
2022/02/26 11:09:43;;;;;;;5.60;3.00;;;9.90;71.10;;;;;;5021215;28;20454;-68
2022/02/26 11:12:13;;;;;;;4.37;3.00;;;10.20;73.90;;;;;;5014757;28;20443;-69
2022/02/26 11:14:44;;;;;;;7.20;4.13;;;12.70;76.70;;;;;;5019429;28;20814;-66
2022/02/26 11:17:13;;;;;;;8.23;3.87;;;14.40;56.10;;;;;;5011749;28;21791;-66
2022/02/26 11:19:39;;;;;;;8.23;4.63;;;14.30;54.50;;;;;;5015269;28;20528;-68
2022/02/26 11:22:05;;;;;;;9.20;3.43;;;14.10;54.30;;;;;;5010743;28;20425;-67
2022/02/26 11:24:31;;;;;;;5.87;3.70;;;14.90;54.20;;;;;;5019726;28;20452;-69
2022/02/26 11:26:57;;;;;;;8.40;5.73;;;14.90;53.10;;;;;;5024768;28;20916;-68
2022/02/26 11:29:24;;;;;;;7.53;3.73;;;16.20;66.10;;;;;;5025047;28;20454;-69
2022/02/26 11:32:05;;;;;;;6.70;4.30;;;17.90;49.60;;;;;;5024942;28;20243;-66
2022/02/26 11:34:32;;;;;;;6.80;3.50;;;20.30;46.00;;;;;;5017072;28;20548;-66
2022/02/26 11:37:04;;;;;;;5.17;3.73;;;21.80;42.00;;;;;;5010411;28;20434;-68
2022/02/26 11:39:45;;;;;;;7.37;4.20;;;21.50;41.30;;;;;;5012136;28;20426;-68
2022/02/26 11:42:13;;;;;;;5.70;3.67;;;19.40;42.10;;;;;;5010521;28;20580;-68
2022/02/26 11:44:44;;;;;;;8.43;5.03;;;17.00;45.40;;;;;;5019764;28;20959;-68
2022/02/26 11:47:15;;;;;;;8.00;3.80;;;15.30;48.30;;;;;;5015593;28;21052;-68
2022/02/26 11:50:04;;;;;;;5.87;3.47;;;14.00;50.40;;;;;;5011129;28;20466;-68
2022/02/26 11:52:49;;;;;;;8.23;5.03;;;12.50;53.00;;;;;;5015509;28;20480;-69
2022/02/26 11:55:41;;;;;;;9.50;3.67;;;11.80;54.50;;;;;;5021747;28;20425;-69
2022/02/26 11:58:12;;;;;;;8.07;3.93;;;11.00;55.60;;;;;;5010544;28;20957;-68
2022/02/26 12:00:51;;;;;;;12.33;3.50;;;10.80;56.50;;;;;;5018568;28;20437;-68
2022/02/26 12:03:25;;;;;;;7.90;5.30;;;10.70;57.40;;;;;;5012127;28;20448;-69
2022/02/26 12:05:54;;;;;;;6.63;3.20;;;12.60;55.50;;;;;;5020205;28;20417;-68
2022/02/26 12:08:32;;;;;;;5.33;3.63;;;16.10;51.20;;;;;;5009967;28;20429;-68
2022/02/26 12:10:58;;;;;;;8.53;3.70;;;18.40;46.80;;;;;;5011525;28;20820;-66
2022/02/26 12:13:28;;;;;;;4.40;3.10;;;20.50;43.70;;;;;;5013104;28;20452;-68
2022/02/26 12:16:17;;;;;;;6.47;3.67;;;19.70;42.40;;;;;;5025227;28;20178;-68
2022/02/26 12:19:04;;;;;;;4.67;3.77;;;18.10;43.80;;;;;;5025876;28;20436;-68
2022/02/26 12:21:36;;;;;;;7.40;4.17;;;16.00;45.10;;;;;;5017560;28;20437;-68
2022/02/26 12:24:15;;;;;;;5.87;3.00;;;14.20;47.80;;;;;;5014737;28;20445;-68
2022/02/26 12:27:04;;;;;;;9.13;3.40;;;12.80;49.90;;;;;;5012274;28;20425;-68
2022/02/26 12:29:39;;;;;;;4.83;2.97;;;12.10;51.30;;;;;;5020667;28;20465;-68
2022/02/26 12:32:05;;;;;;;7.30;2.73;;;11.40;53.20;;;;;;5021386;28;20433;-68
2022/02/26 12:34:38;;;;;;;5.80;3.63;;;10.80;69.10;;;;;;5022951;28;20869;-68
2022/02/26 12:37:15;;;;;;;10.23;4.80;;;10.50;71.20;;;;;;5026868;28;20878;-68
2022/02/26 12:39:53;;;;;;;5.17;2.83;;;10.50;71.80;;;;;;5023806;28;20440;-68
2022/02/26 12:42:23;;;;;;;6.90;3.57;;;10.90;71.40;;;;;;5026122;28;20933;-68
2022/02/26 12:44:55;;;;;;;4.50;3.37;;;11.50;69.80;;;;;;5023614;28;20468;-67
2022/02/26 12:47:21;;;;;;;6.87;3.27;;;11.50;69.80;;;;;;5016349;28;20437;-67
2022/02/26 12:49:47;;;;;;;6.67;2.80;;;11.00;69.40;;;;;;5017325;28;20960;-67
2022/02/26 12:52:13;;;;;;;7.53;3.10;;;10.70;70.60;;;;;;5016127;28;20437;-67
2022/02/26 12:54:40;;;;;;;7.77;3.37;;;11.20;71.20;;;;;;5023319;28;22050;-68